Time;durP1;ratioP1;P1;durP2;ratioP2;P2;SDS_P1;SDS_P2;PMS_P1;PMS_P2;Temp;Humidity;BMP_temperature;BMP_pressure;BME280_temperature;BME280_humidity;BME280_pressure;Samples;Min_cycle;Max_cycle;Signal;HPM_P1;HPM_P2
2021/05/17 00:02:07;;;;;;;3.97;3.42;;;12.60;99.90;;;;;;5035455;28;20022;-88
2021/05/17 00:04:33;;;;;;;4.88;3.95;;;12.50;99.90;;;;;;5035522;28;20083;-86
2021/05/17 00:07:07;;;;;;;8.95;4.85;;;12.50;99.90;;;;;;5035341;28;20025;-84
2021/05/17 00:09:33;;;;;;;8.30;4.20;;;12.60;99.90;;;;;;5035050;28;20037;-86
2021/05/17 00:11:59;;;;;;;5.13;3.80;;;12.60;99.90;;;;;;5035114;28;20029;-82
2021/05/17 00:14:27;;;;;;;4.88;3.20;;;12.60;99.90;;;;;;5035208;28;20022;-81
2021/05/17 00:16:53;;;;;;;3.08;2.85;;;12.60;99.90;;;;;;5034098;28;20029;-82
2021/05/17 00:19:19;;;;;;;3.53;3.22;;;12.60;99.90;;;;;;5034925;28;20037;-84
2021/05/17 00:21:45;;;;;;;6.15;3.45;;;12.60;99.90;;;;;;5035154;28;20026;-83
2021/05/17 00:24:12;;;;;;;9.27;6.95;;;12.60;99.90;;;;;;5035371;28;20025;-85
2021/05/17 00:26:38;;;;;;;13.48;8.65;;;12.60;99.90;;;;;;5035236;28;20014;-83
2021/05/17 00:29:06;;;;;;;9.73;7.53;;;12.60;99.90;;;;;;5035002;28;20021;-82
2021/05/17 00:31:33;;;;;;;10.20;9.10;;;12.60;99.90;;;;;;5035425;28;20194;-87
2021/05/17 00:33:59;;;;;;;9.27;8.27;;;12.70;99.90;;;;;;5034861;28;20017;-83
2021/05/17 00:36:25;;;;;;;10.20;8.15;;;12.70;99.90;;;;;;5035263;28;20032;-84
2021/05/17 00:38:51;;;;;;;8.60;7.45;;;12.70;99.90;;;;;;5034617;28;20029;-87
2021/05/17 00:41:17;;;;;;;11.82;8.30;;;12.70;99.90;;;;;;5034693;28;20079;-84
2021/05/17 00:43:45;;;;;;;11.50;7.18;;;12.70;99.90;;;;;;5036028;28;20100;-87
2021/05/17 00:46:11;;;;;;;8.40;6.95;;;12.70;99.90;;;;;;5035826;28;20029;-84
2021/05/17 00:48:38;;;;;;;5.65;5.15;;;12.70;99.90;;;;;;5034765;28;20160;-84
2021/05/17 00:51:06;;;;;;;5.70;5.10;;;12.70;99.90;;;;;;5034959;28;20021;-84
2021/05/17 00:53:34;;;;;;;5.07;4.57;;;12.70;99.90;;;;;;5035860;28;20116;-83
2021/05/17 00:55:59;;;;;;;5.80;3.95;;;12.70;99.90;;;;;;5034857;28;20025;-84
2021/05/17 00:58:26;;;;;;;5.20;4.10;;;12.70;99.90;;;;;;5034685;28;20109;-85
2021/05/17 01:00:51;;;;;;;6.00;4.25;;;12.70;99.90;;;;;;5035901;28;20037;-83
2021/05/17 01:03:17;;;;;;;4.43;3.97;;;12.80;99.90;;;;;;5034394;28;20029;-81
2021/05/17 01:05:43;;;;;;;7.90;5.68;;;12.70;99.90;;;;;;5034763;28;20053;-84
2021/05/17 01:08:12;;;;;;;6.97;6.35;;;12.70;99.90;;;;;;5034912;28;20033;-86
2021/05/17 01:10:43;;;;;;;7.68;5.72;;;12.70;99.90;;;;;;5034451;28;20049;-83
2021/05/17 01:13:09;;;;;;;7.07;4.95;;;12.70;99.90;;;;;;5034841;28;20025;-85
2021/05/17 01:15:39;;;;;;;7.10;4.93;;;12.70;99.90;;;;;;5034410;28;20022;-84
2021/05/17 01:18:05;;;;;;;6.43;5.18;;;12.70;99.90;;;;;;5034530;28;20033;-83
2021/05/17 01:20:33;;;;;;;5.40;4.90;;;12.70;99.90;;;;;;5034335;28;20082;-86
2021/05/17 01:23:31;;;;;;;7.07;5.40;;;12.70;99.90;;;;;;5034121;28;20026;-84
2021/05/17 01:25:59;;;;;;;6.15;4.20;;;12.80;99.90;;;;;;5035532;28;20048;-81
2021/05/17 01:28:30;;;;;;;5.88;4.50;;;12.80;99.90;;;;;;5034070;28;20410;-89
2021/05/17 01:30:59;;;;;;;5.05;4.28;;;12.80;99.90;;;;;;5034546;28;20052;-84
2021/05/17 01:33:31;;;;;;;5.63;3.97;;;12.80;99.90;;;;;;5034264;28;20037;-85
2021/05/17 01:35:59;;;;;;;7.68;4.13;;;12.80;99.90;;;;;;5035310;28;20036;-83
2021/05/17 01:38:25;;;;;;;5.07;4.65;;;12.80;99.90;;;;;;5034074;28;20055;-82
2021/05/17 01:40:53;;;;;;;5.28;4.30;;;12.80;99.90;;;;;;5033564;28;20543;-82
2021/05/17 01:43:21;;;;;;;5.50;4.68;;;12.80;99.90;;;;;;5035346;28;20022;-85
2021/05/17 01:45:48;;;;;;;4.57;4.18;;;12.90;99.90;;;;;;5034903;28;20108;-84
2021/05/17 01:48:14;;;;;;;4.90;4.50;;;12.90;99.90;;;;;;5034009;28;20028;-85
2021/05/17 01:50:40;;;;;;;5.38;4.93;;;12.90;99.90;;;;;;5033965;28;20022;-85
2021/05/17 01:53:06;;;;;;;5.95;5.35;;;12.80;99.90;;;;;;5034514;28;20022;-82
2021/05/17 01:55:32;;;;;;;5.97;5.47;;;12.80;99.90;;;;;;5033682;28;20029;-84
2021/05/17 01:58:20;;;;;;;5.70;5.10;;;12.80;99.90;;;;;;5033247;28;20048;-86
2021/05/17 02:00:46;;;;;;;5.28;4.63;;;12.80;99.90;;;;;;5033294;28;20543;-86
2021/05/17 02:03:11;;;;;;;5.32;4.82;;;12.90;99.90;;;;;;5033583;28;20025;-85
2021/05/17 02:05:37;;;;;;;4.95;4.45;;;12.90;99.90;;;;;;5033185;28;20048;-86
2021/05/17 02:08:04;;;;;;;6.07;5.38;;;12.90;99.90;;;;;;5033446;28;20029;-84
2021/05/17 02:10:31;;;;;;;6.53;5.05;;;12.90;99.90;;;;;;5033225;28;20022;-83
2021/05/17 02:12:58;;;;;;;6.22;4.25;;;13.00;99.90;;;;;;5033239;28;20048;-82
2021/05/17 02:15:24;;;;;;;5.55;4.10;;;13.00;99.90;;;;;;5033173;28;20487;-87
2021/05/17 02:18:09;;;;;;;6.60;4.40;;;13.00;99.90;;;;;;5032986;28;20052;-84
2021/05/17 02:20:37;;;;;;;5.63;4.57;;;12.90;99.90;;;;;;5033084;28;20034;-84
2021/05/17 02:23:04;;;;;;;7.53;5.10;;;12.90;99.90;;;;;;5034444;28;20108;-84
2021/05/17 02:25:31;;;;;;;5.45;4.35;;;12.90;99.90;;;;;;5033149;28;20017;-85
2021/05/17 02:27:57;;;;;;;6.05;5.35;;;12.90;99.90;;;;;;5032781;28;20083;-84
2021/05/17 02:30:24;;;;;;;7.00;6.00;;;12.90;99.90;;;;;;5033317;28;20057;-85
2021/05/17 02:32:51;;;;;;;7.55;5.68;;;12.90;99.90;;;;;;5033341;28;20136;-87
2021/05/17 02:35:19;;;;;;;6.65;5.35;;;12.80;99.90;;;;;;5033262;28;20148;-86
2021/05/17 02:37:46;;;;;;;5.40;4.80;;;12.80;99.90;;;;;;5035107;28;20021;-87
2021/05/17 02:40:12;;;;;;;5.57;4.68;;;12.90;99.90;;;;;;5036248;28;20037;-84
2021/05/17 02:42:42;;;;;;;5.18;4.68;;;12.90;99.90;;;;;;5037147;28;20045;-86
2021/05/17 02:45:08;;;;;;;5.50;4.57;;;12.80;99.90;;;;;;5038582;28;20025;-83
2021/05/17 02:47:35;;;;;;;5.22;4.80;;;12.80;99.90;;;;;;5037437;28;20018;-85
2021/05/17 02:50:02;;;;;;;4.97;4.40;;;12.80;99.90;;;;;;5037095;28;20485;-84
2021/05/17 02:52:31;;;;;;;5.55;4.85;;;12.90;99.90;;;;;;5037384;28;20021;-84
2021/05/17 02:55:11;;;;;;;5.68;5.00;;;12.90;99.90;;;;;;5037297;28;20026;-85
2021/05/17 02:57:42;;;;;;;7.65;4.95;;;12.90;99.90;;;;;;5037433;28;20025;-83
2021/05/17 03:00:11;;;;;;;4.53;4.13;;;12.90;99.90;;;;;;5037036;28;20037;-85
2021/05/17 03:02:56;;;;;;;4.95;4.45;;;12.90;99.90;;;;;;5038133;28;20049;-86
2021/05/17 03:05:22;;;;;;;7.07;5.00;;;12.80;99.90;;;;;;5037377;28;20021;-85
2021/05/17 03:07:55;;;;;;;10.70;5.03;;;12.80;99.90;;;;;;5037420;28;20021;-84
2021/05/17 03:10:23;;;;;;;5.78;5.18;;;12.80;99.90;;;;;;5036961;28;20048;-84
2021/05/17 03:12:52;;;;;;;10.98;5.30;;;12.70;99.90;;;;;;5038281;28;20089;-87
2021/05/17 03:15:18;;;;;;;11.27;4.68;;;12.70;99.90;;;;;;5037350;28;20121;-85
2021/05/17 03:17:44;;;;;;;6.68;3.63;;;12.70;99.90;;;;;;5038196;28;20057;-85
2021/05/17 03:20:10;;;;;;;2.45;2.10;;;12.60;99.90;;;;;;5036631;28;20065;-82
2021/05/17 03:22:36;;;;;;;3.05;1.67;;;12.50;99.90;;;;;;5036815;28;20032;-84
2021/05/17 03:25:06;;;;;;;3.53;1.27;;;12.40;99.90;;;;;;5036759;28;20022;-85
2021/05/17 03:27:33;;;;;;;2.65;1.10;;;12.30;99.90;;;;;;5036827;28;20022;-82
2021/05/17 03:29:58;;;;;;;5.07;1.00;;;12.20;99.90;;;;;;5036108;28;20124;-87
2021/05/17 03:32:25;;;;;;;3.97;1.00;;;12.10;99.90;;;;;;5036982;28;20075;-84
2021/05/17 03:34:51;;;;;;;1.30;0.80;;;12.00;99.90;;;;;;5037255;28;20361;-86
2021/05/17 03:37:17;;;;;;;3.17;0.68;;;12.00;99.90;;;;;;5036560;28;20022;-86
2021/05/17 03:39:49;;;;;;;3.10;0.80;;;11.90;99.90;;;;;;5037250;28;20527;-84
2021/05/17 03:42:14;;;;;;;2.67;1.15;;;11.80;99.90;;;;;;5037059;28;20056;-85
2021/05/17 03:44:40;;;;;;;3.22;0.93;;;11.80;99.90;;;;;;5036656;28;20021;-86
2021/05/17 03:47:06;;;;;;;3.33;0.65;;;11.80;99.90;;;;;;5036435;28;20022;-85
2021/05/17 03:49:32;;;;;;;5.00;1.10;;;11.70;99.90;;;;;;5036722;28;20028;-85
2021/05/17 03:51:57;;;;;;;1.70;0.80;;;11.70;99.90;;;;;;5036049;28;20088;-85
2021/05/17 03:54:23;;;;;;;1.92;0.80;;;11.70;99.90;;;;;;5036359;28;20021;-85
2021/05/17 03:56:49;;;;;;;3.38;1.10;;;11.60;99.90;;;;;;5036514;28;20112;-84
2021/05/17 03:59:16;;;;;;;2.95;0.77;;;11.60;99.90;;;;;;5036048;28;20374;-85
2021/05/17 04:01:42;;;;;;;2.70;0.93;;;11.60;99.90;;;;;;5035836;28;20079;-84
2021/05/17 04:04:09;;;;;;;1.92;0.70;;;11.50;99.90;;;;;;5035924;28;20060;-83
2021/05/17 04:06:49;;;;;;;3.83;1.25;;;11.50;99.90;;;;;;5035681;28;20069;-85
2021/05/17 04:14:43;;;;;;;3.08;0.80;;;11.60;99.90;;;;;;5036845;28;20500;-85
2021/05/17 04:17:09;;;;;;;1.80;1.02;;;11.60;99.90;;;;;;5035535;28;20030;-85
2021/05/17 04:19:34;;;;;;;1.65;0.70;;;11.60;99.90;;;;;;5035664;28;20065;-86
2021/05/17 04:22:00;;;;;;;5.80;1.75;;;11.60;99.90;;;;;;5035387;28;20021;-86
2021/05/17 04:24:26;;;;;;;5.50;1.55;;;11.70;99.90;;;;;;5035223;28;20112;-85
2021/05/17 04:26:51;;;;;;;4.53;1.30;;;11.70;99.90;;;;;;5035315;28;20026;-85
2021/05/17 04:29:17;;;;;;;2.90;1.50;;;11.60;99.90;;;;;;5035145;28;20116;-85
2021/05/17 04:31:43;;;;;;;4.72;2.25;;;11.60;99.90;;;;;;5035388;28;20030;-84
2021/05/17 04:34:08;;;;;;;4.93;2.70;;;11.60;99.90;;;;;;5035507;28;20021;-85
2021/05/17 04:36:34;;;;;;;4.47;2.30;;;11.70;99.90;;;;;;5035355;28;20388;-83
2021/05/17 04:39:00;;;;;;;2.78;1.30;;;11.70;99.90;;;;;;5035168;28;20021;-84
2021/05/17 04:41:26;;;;;;;4.05;1.38;;;11.70;99.90;;;;;;5035403;28;20091;-85
2021/05/17 04:43:53;;;;;;;3.83;1.48;;;11.70;99.90;;;;;;5035207;28;20473;-87
2021/05/17 04:46:18;;;;;;;3.50;1.50;;;11.60;99.90;;;;;;5035190;28;20022;-87
2021/05/17 04:48:50;;;;;;;4.15;1.33;;;11.60;99.90;;;;;;5034968;28;20059;-83
2021/05/17 04:51:21;;;;;;;3.60;0.90;;;11.60;99.90;;;;;;5034960;28;20053;-87
2021/05/17 04:53:47;;;;;;;2.97;1.20;;;11.60;99.90;;;;;;5035257;28;20021;-83
2021/05/17 04:56:12;;;;;;;4.00;1.25;;;11.70;99.90;;;;;;5034552;28;20030;-80
2021/05/17 04:58:38;;;;;;;3.00;1.13;;;13.30;99.90;;;;;;5039520;28;20079;-81
2021/05/17 05:01:04;;;;;;;4.45;1.17;;;13.70;99.90;;;;;;5034674;28;20041;-84
2021/05/17 05:03:30;;;;;;;3.42;1.10;;;14.20;99.90;;;;;;5035073;28;20029;-84
2021/05/17 05:06:00;;;;;;;8.00;5.60;;;14.80;99.90;;;;;;5035389;28;20477;-83
2021/05/17 05:08:26;;;;;;;7.15;5.07;;;15.30;99.90;;;;;;5034250;28;20415;-83
2021/05/17 05:10:52;;;;;;;3.17;2.15;;;14.80;99.90;;;;;;5034774;28;20404;-83
2021/05/17 05:13:18;;;;;;;4.07;1.20;;;14.80;99.90;;;;;;5035481;28;20076;-82
2021/05/17 05:15:43;;;;;;;2.28;0.90;;;14.70;99.90;;;;;;5038847;28;20064;-85
2021/05/17 05:18:09;;;;;;;10.70;5.95;;;14.70;99.90;;;;;;5035309;28;20102;-84
2021/05/17 05:20:35;;;;;;;7.85;4.50;;;14.50;99.90;;;;;;5033963;28;20037;-83
2021/05/17 05:23:02;;;;;;;5.85;3.22;;;14.60;99.90;;;;;;5033765;28;20029;-80
2021/05/17 05:25:41;;;;;;;4.22;2.40;;;14.50;99.90;;;;;;5034080;28;20112;-82
2021/05/17 05:28:07;;;;;;;4.55;1.65;;;14.60;99.90;;;;;;5035133;28;20021;-84
2021/05/17 05:35:33;;;;;;;2.40;1.20;;;14.30;99.90;;;;;;5034539;28;20025;-81
2021/05/17 05:37:59;;;;;;;4.43;0.88;;;14.20;99.90;;;;;;5033335;28;20116;-81
2021/05/17 05:40:25;;;;;;;2.60;0.80;;;14.40;99.90;;;;;;5033332;28;20133;-85
2021/05/17 05:42:50;;;;;;;4.60;1.70;;;14.20;99.90;;;;;;5033031;28;20099;-82
2021/05/17 05:45:16;;;;;;;2.47;1.33;;;13.80;99.90;;;;;;5033131;28;20025;-84
2021/05/17 05:47:42;;;;;;;2.75;1.23;;;14.10;99.90;;;;;;5033656;28;20025;-80
2021/05/17 05:50:08;;;;;;;3.17;1.10;;;14.20;99.90;;;;;;5033069;28;20113;-85
2021/05/17 05:52:33;;;;;;;3.30;1.08;;;14.20;99.90;;;;;;5034264;28;20469;-81
2021/05/17 05:55:03;;;;;;;1.70;1.02;;;14.60;99.90;;;;;;5032732;28;20029;-85
2021/05/17 05:57:36;;;;;;;3.75;0.90;;;14.60;99.90;;;;;;5033047;28;20489;-82
2021/05/17 06:00:05;;;;;;;3.38;0.80;;;14.50;99.90;;;;;;5032819;28;20038;-80
2021/05/17 06:02:30;;;;;;;3.95;1.20;;;14.60;99.90;;;;;;5032638;28;20049;-83
2021/05/17 06:04:56;;;;;;;18.80;12.88;;;14.70;99.90;;;;;;5033240;28;20549;-82
2021/05/17 06:07:22;;;;;;;12.75;8.85;;;14.00;99.90;;;;;;5033024;28;20025;-83
2021/05/17 06:09:47;;;;;;;10.63;7.88;;;13.50;99.90;;;;;;5033063;28;20029;-84
2021/05/17 06:12:13;;;;;;;5.55;2.85;;;13.20;99.90;;;;;;5032976;28;20373;-82
2021/05/17 06:14:39;;;;;;;5.00;2.78;;;12.80;99.90;;;;;;5032152;28;20461;-83
2021/05/17 06:17:05;;;;;;;6.28;2.40;;;12.60;99.90;;;;;;5032999;28;20037;-85
2021/05/17 06:19:31;;;;;;;3.40;1.80;;;12.50;99.90;;;;;;5032620;28;20366;-82
2021/05/17 06:21:57;;;;;;;3.35;1.80;;;12.40;99.90;;;;;;5032888;28;20087;-83
2021/05/17 06:24:23;;;;;;;10.60;5.20;;;12.30;99.90;;;;;;5032992;28;20029;-82
2021/05/17 06:26:49;;;;;;;8.68;4.88;;;12.30;99.90;;;;;;5032633;28;20026;-86
2021/05/17 06:29:15;;;;;;;5.60;2.20;;;12.20;99.90;;;;;;5032809;28;20095;-84
2021/05/17 06:31:46;;;;;;;1.77;0.95;;;12.20;99.90;;;;;;5032819;28;20025;-82
2021/05/17 06:34:13;;;;;;;1.70;0.98;;;12.10;99.90;;;;;;5032711;28;20022;-85
2021/05/17 06:36:38;;;;;;;4.60;1.70;;;12.10;99.90;;;;;;5032892;28;20030;-85
2021/05/17 06:39:07;;;;;;;7.40;3.35;;;12.00;99.90;;;;;;5032599;28;20026;-81
2021/05/17 06:41:33;;;;;;;1.95;1.20;;;12.00;99.90;;;;;;5033288;28;20042;-83
2021/05/17 06:43:59;;;;;;;2.47;1.17;;;12.00;99.90;;;;;;5032758;28;20392;-85
2021/05/17 06:46:25;;;;;;;3.80;0.93;;;12.00;99.90;;;;;;5032489;28;20084;-83
2021/05/17 06:48:51;;;;;;;2.10;0.70;;;12.00;99.90;;;;;;5033201;28;20028;-85
2021/05/17 06:51:19;;;;;;;2.03;0.70;;;12.00;99.90;;;;;;5034787;28;20075;-85
2021/05/17 06:53:48;;;;;;;5.72;1.00;;;12.10;99.90;;;;;;5034941;28;20033;-84
2021/05/17 06:56:27;;;;;;;2.42;0.90;;;12.00;99.90;;;;;;5018424;28;20445;-84
2021/05/17 06:58:58;;;;;;;3.65;1.80;;;12.00;99.90;;;;;;5036170;28;20056;-86
2021/05/17 07:01:26;;;;;;;2.58;1.00;;;12.10;99.90;;;;;;5034553;28;20040;-87
2021/05/17 07:03:52;;;;;;;3.15;1.27;;;12.10;99.90;;;;;;5035021;28;20026;-85
2021/05/17 07:06:29;;;;;;;2.17;1.13;;;12.20;99.90;;;;;;5034783;28;20103;-84
2021/05/17 07:14:11;;;;;;;4.53;1.02;;;14.60;99.90;;;;;;5035062;28;20083;-83
2021/05/17 07:16:36;;;;;;;1.70;0.60;;;14.70;99.90;;;;;;5034853;28;20029;-88
2021/05/17 07:19:02;;;;;;;1.60;0.50;;;14.20;99.90;;;;;;5033967;28;20048;-84
2021/05/17 07:24:13;;;;;;;1.15;0.50;;;13.40;99.90;;;;;;5035299;28;20385;-86
2021/05/17 07:26:39;;;;;;;0.70;0.32;;;13.10;99.90;;;;;;5036633;28;20021;-84
2021/05/17 07:29:07;;;;;;;0.98;0.77;;;13.00;99.90;;;;;;5037156;28;20025;-85
2021/05/17 07:31:33;;;;;;;1.35;0.80;;;12.90;99.90;;;;;;5037280;28;20022;-83
2021/05/17 07:33:59;;;;;;;2.13;1.40;;;12.80;99.90;;;;;;5037275;28;20103;-83
2021/05/17 07:36:24;;;;;;;2.30;1.20;;;12.70;99.90;;;;;;5037517;28;20022;-87
2021/05/17 07:38:52;;;;;;;1.50;1.08;;;12.70;99.90;;;;;;5037374;28;20021;-85
2021/05/17 07:41:18;;;;;;;1.27;0.40;;;12.80;99.90;;;;;;5036980;28;20072;-86
2021/05/17 07:43:43;;;;;;;1.08;0.40;;;12.80;99.90;;;;;;5037174;28;20033;-88
2021/05/17 07:46:09;;;;;;;3.30;0.57;;;12.90;99.90;;;;;;5036451;28;20511;-85
2021/05/17 07:49:02;;;;;;;1.30;0.60;;;12.90;99.90;;;;;;5036671;28;20026;-85
2021/05/17 07:51:20;;;;;;;1.67;0.65;;;12.90;99.90;;;;;;5038316;28;20030;-86
2021/05/17 07:53:46;;;;;;;1.55;0.60;;;13.00;99.90;;;;;;5037021;28;20396;-86
2021/05/17 07:56:14;;;;;;;1.30;0.30;;;13.00;99.90;;;;;;5036716;28;20036;-84
2021/05/17 07:58:40;;;;;;;1.55;0.30;;;13.00;99.90;;;;;;5037097;28;20040;-84
2021/05/17 08:01:05;;;;;;;0.80;0.28;;;13.10;99.90;;;;;;5036582;28;20033;-80
2021/05/17 08:03:31;;;;;;;3.38;0.57;;;13.00;99.90;;;;;;5035214;28;20052;-83
2021/05/17 08:05:57;;;;;;;2.58;0.52;;;14.00;99.90;;;;;;5035461;28;20030;-82
2021/05/17 08:08:23;;;;;;;1.75;0.60;;;14.50;99.90;;;;;;5035681;28;20025;-84
2021/05/17 08:10:50;;;;;;;1.15;0.30;;;14.60;99.90;;;;;;5035363;28;20457;-83
2021/05/17 08:13:15;;;;;;;1.17;0.25;;;15.00;99.90;;;;;;5035614;28;20025;-82
2021/05/17 08:15:41;;;;;;;2.45;0.73;;;14.90;99.90;;;;;;5035283;28;20026;-83
2021/05/17 08:18:07;;;;;;;4.20;1.52;;;14.40;99.90;;;;;;5035178;28;20029;-83
2021/05/17 08:20:32;;;;;;;5.88;2.30;;;14.50;99.90;;;;;;5034268;28;20477;-81
2021/05/17 08:23:00;;;;;;;4.85;3.10;;;14.50;99.90;;;;;;5034655;28;20025;-82
2021/05/17 08:25:25;;;;;;;4.57;1.55;;;14.50;99.90;;;;;;5034965;28;20030;-84
2021/05/17 08:27:51;;;;;;;1.45;0.80;;;14.50;99.90;;;;;;5034456;28;20552;-82
2021/05/17 08:30:20;;;;;;;3.10;0.70;;;14.00;99.90;;;;;;5034922;28;20488;-82
2021/05/17 08:32:46;;;;;;;1.27;0.35;;;14.10;99.90;;;;;;5034235;28;20031;-82
2021/05/17 08:35:11;;;;;;;4.97;0.65;;;14.10;99.90;;;;;;5034580;28;20029;-82
2021/05/17 08:37:37;;;;;;;2.83;0.82;;;14.10;99.90;;;;;;5033734;28;20025;-82
2021/05/17 08:40:03;;;;;;;4.40;1.10;;;13.90;99.90;;;;;;5034490;28;20033;-84
2021/05/17 08:42:29;;;;;;;3.13;1.15;;;14.10;99.90;;;;;;5035490;28;20125;-81
2021/05/17 08:44:55;;;;;;;1.73;0.85;;;14.30;99.90;;;;;;5034383;28;20053;-82
2021/05/17 08:47:21;;;;;;;4.65;2.03;;;14.70;99.90;;;;;;5034182;28;20026;-83
2021/05/17 08:49:47;;;;;;;4.97;2.53;;;14.60;99.90;;;;;;5034613;28;20427;-84
2021/05/17 08:52:12;;;;;;;3.97;2.20;;;14.50;99.90;;;;;;5034519;28;20112;-82
2021/05/17 08:54:38;;;;;;;3.30;1.30;;;14.40;99.90;;;;;;5033894;28;20111;-84
2021/05/17 08:57:04;;;;;;;2.83;1.70;;;14.50;99.90;;;;;;5034270;28;20465;-82
2021/05/17 08:59:31;;;;;;;2.35;0.73;;;14.80;99.90;;;;;;5033888;28;20033;-82
2021/05/17 09:01:57;;;;;;;0.95;0.45;;;14.80;99.90;;;;;;5034326;28;20033;-83
2021/05/17 09:04:22;;;;;;;2.55;0.70;;;15.30;99.90;;;;;;5034249;28;20071;-81
2021/05/17 09:06:57;;;;;;;1.73;0.50;;;15.00;99.90;;;;;;5034089;28;20051;-83
2021/05/17 09:09:34;;;;;;;4.00;0.60;;;15.00;99.90;;;;;;5034194;28;20021;-82
2021/05/17 09:12:03;;;;;;;2.05;0.57;;;15.00;99.90;;;;;;5033961;28;20021;-82
2021/05/17 09:14:30;;;;;;;2.38;0.60;;;14.90;99.90;;;;;;5033554;28;20049;-81
2021/05/17 09:16:59;;;;;;;4.43;0.50;;;14.70;99.90;;;;;;5033411;28;20602;-83
2021/05/17 09:19:27;;;;;;;1.35;0.30;;;14.90;99.90;;;;;;5032973;28;20537;-81
2021/05/17 09:22:15;;;;;;;4.43;1.85;;;14.80;99.90;;;;;;5032973;28;20037;-84
2021/05/17 09:24:46;;;;;;;3.50;1.95;;;14.90;99.90;;;;;;5033034;28;20056;-82
2021/05/17 09:27:19;;;;;;;2.47;0.55;;;14.90;99.90;;;;;;5032730;28;20029;-83
2021/05/17 09:29:48;;;;;;;2.03;0.50;;;15.00;99.90;;;;;;5033149;28;20022;-86
2021/05/17 09:32:26;;;;;;;5.88;0.60;;;15.00;99.90;;;;;;5033560;28;20053;-82
2021/05/17 09:35:19;;;;;;;1.42;0.65;;;14.90;99.90;;;;;;5033542;28;20507;-83
2021/05/17 09:37:58;;;;;;;2.10;0.35;;;15.40;99.90;;;;;;5032811;28;20064;-83
2021/05/17 09:40:32;;;;;;;0.95;0.30;;;15.40;99.90;;;;;;5032591;28;20030;-83
2021/05/17 09:43:03;;;;;;;2.25;1.10;;;15.50;99.90;;;;;;5034093;28;20033;-81
2021/05/17 09:45:37;;;;;;;2.47;0.40;;;15.30;99.90;;;;;;5032692;28;20029;-82
2021/05/17 09:48:23;;;;;;;2.25;0.50;;;15.30;99.90;;;;;;5033583;28;20024;-83
2021/05/17 09:51:12;;;;;;;0.80;0.35;;;15.40;99.90;;;;;;5032652;28;20030;-81
2021/05/17 09:53:42;;;;;;;2.25;0.50;;;15.50;99.90;;;;;;5032505;28;20033;-79
2021/05/17 09:56:10;;;;;;;1.00;0.43;;;15.50;99.90;;;;;;5032766;28;20039;-82
2021/05/17 09:58:41;;;;;;;5.75;0.60;;;15.60;99.90;;;;;;5032367;28;20061;-81
2021/05/17 10:01:15;;;;;;;1.60;0.70;;;15.70;99.90;;;;;;5033058;28;20160;-83
2021/05/17 10:03:52;;;;;;;1.00;0.30;;;15.60;99.90;;;;;;5033396;28;20033;-85
2021/05/17 10:06:23;;;;;;;4.05;0.50;;;15.40;99.90;;;;;;5034324;28;20013;-84
2021/05/17 10:08:49;;;;;;;1.50;0.43;;;15.40;99.90;;;;;;5032687;28;20026;-81
2021/05/17 10:11:16;;;;;;;0.70;0.30;;;15.50;99.90;;;;;;5032285;28;20021;-80
2021/05/17 10:13:43;;;;;;;1.85;0.40;;;15.50;99.90;;;;;;5032967;28;20025;-86
2021/05/17 10:16:10;;;;;;;0.85;0.38;;;15.70;99.90;;;;;;5032368;28;20386;-82
2021/05/17 10:18:38;;;;;;;2.63;0.40;;;15.50;99.90;;;;;;5032282;28;20046;-82
2021/05/17 10:21:05;;;;;;;0.95;0.30;;;15.40;99.90;;;;;;5032584;28;20049;-83
2021/05/17 10:23:31;;;;;;;0.70;0.30;;;15.60;99.90;;;;;;5032703;28;20021;-83
2021/05/17 10:26:06;;;;;;;0.73;0.20;;;15.70;99.90;;;;;;5033752;28;20059;-83
2021/05/17 10:28:33;;;;;;;1.50;0.23;;;15.70;99.90;;;;;;5032473;28;20469;-81
2021/05/17 10:31:11;;;;;;;1.65;0.30;;;15.70;99.90;;;;;;5032459;28;20022;-84
2021/05/17 10:33:38;;;;;;;2.03;0.40;;;15.60;99.90;;;;;;5032517;28;20030;-82
2021/05/17 10:36:06;;;;;;;0.65;0.20;;;15.70;99.90;;;;;;5034105;28;20025;-83
2021/05/17 10:38:47;;;;;;;1.48;0.40;;;15.70;99.90;;;;;;5033704;28;20021;-84
2021/05/17 10:46:51;;;;;;;1.55;0.60;;;15.50;99.90;;;;;;5033786;28;20449;-82
2021/05/17 10:49:28;;;;;;;1.42;0.55;;;15.50;99.90;;;;;;5033588;28;20022;-83
2021/05/17 10:52:06;;;;;;;2.13;0.30;;;15.60;99.90;;;;;;5032698;28;20029;-82
2021/05/17 10:54:38;;;;;;;1.38;0.30;;;15.40;99.90;;;;;;5032652;28;20072;-83
2021/05/17 10:57:41;;;;;;;2.55;0.50;;;15.20;99.90;;;;;;5033893;28;20071;-84
2021/05/17 11:00:25;;;;;;;7.90;0.77;;;15.10;99.90;;;;;;5033172;28;20466;-84
2021/05/17 11:03:13;;;;;;;2.47;0.77;;;15.00;99.90;;;;;;5036861;28;20030;-82
2021/05/17 11:05:40;;;;;;;2.67;0.50;;;15.10;99.90;;;;;;5036636;28;20465;-81
2021/05/17 11:08:09;;;;;;;3.25;1.20;;;15.00;99.90;;;;;;5037664;28;20022;-84
2021/05/17 11:10:42;;;;;;;3.55;0.95;;;15.20;99.90;;;;;;5036778;28;20080;-84
2021/05/17 11:13:09;;;;;;;4.25;0.60;;;15.10;99.90;;;;;;5036741;28;20376;-84
2021/05/17 11:16:06;;;;;;;2.88;0.57;;;15.00;99.90;;;;;;5036561;28;20029;-84
2021/05/17 11:18:39;;;;;;;5.15;0.40;;;15.10;99.90;;;;;;5036368;28;20021;-86
2021/05/17 11:21:12;;;;;;;3.65;0.43;;;15.20;99.90;;;;;;5036113;28;20038;-84
2021/05/17 11:23:37;;;;;;;5.32;0.68;;;15.10;99.90;;;;;;5035965;28;20036;-83
2021/05/17 11:26:07;;;;;;;1.73;0.80;;;15.30;99.90;;;;;;5036131;28;20033;-84
2021/05/17 11:28:39;;;;;;;2.08;0.70;;;15.20;99.90;;;;;;5035868;28;20083;-85
2021/05/17 11:33:52;;;;;;;1.63;0.40;;;15.50;99.90;;;;;;5037394;28;20038;-83
2021/05/17 11:36:27;;;;;;;1.33;0.50;;;15.50;99.90;;;;;;5036139;28;20018;-83
2021/05/17 11:39:08;;;;;;;4.75;0.45;;;15.60;99.90;;;;;;5035715;28;20487;-85
2021/05/17 11:41:43;;;;;;;2.55;0.70;;;15.50;99.90;;;;;;5035710;28;20081;-84
2021/05/17 11:44:21;;;;;;;2.10;0.40;;;15.60;99.90;;;;;;5035656;28;20420;-84
2021/05/17 11:46:50;;;;;;;1.83;0.40;;;15.70;99.90;;;;;;5035853;28;20366;-83
2021/05/17 11:49:18;;;;;;;1.05;0.50;;;15.70;99.90;;;;;;5035682;28;20021;-82
2021/05/17 11:51:52;;;;;;;1.58;0.65;;;15.70;99.90;;;;;;5035255;28;20029;-83
2021/05/17 11:54:19;;;;;;;5.20;0.60;;;15.80;99.90;;;;;;5035720;28;20075;-84
2021/05/17 11:56:49;;;;;;;2.78;0.50;;;16.00;99.90;;;;;;5035640;28;20025;-84
2021/05/17 11:59:19;;;;;;;1.92;0.60;;;15.90;99.90;;;;;;5035427;28;20029;-83
2021/05/17 12:01:54;;;;;;;0.57;0.30;;;16.00;99.90;;;;;;5035790;28;20038;-83
2021/05/17 12:04:29;;;;;;;0.77;0.30;;;16.00;99.90;;;;;;5035493;28;20128;-83
2021/05/17 12:07:05;;;;;;;0.60;0.30;;;15.70;99.90;;;;;;5036703;28;20060;-84
2021/05/17 12:09:39;;;;;;;0.65;0.30;;;15.70;99.90;;;;;;5035395;28;20052;-85
2021/05/17 12:12:08;;;;;;;0.47;0.28;;;15.90;99.90;;;;;;5034019;28;20033;-83
2021/05/17 12:14:34;;;;;;;2.60;0.30;;;16.00;99.90;;;;;;5035216;28;20021;-83
2021/05/17 12:17:08;;;;;;;1.63;0.20;;;16.00;99.90;;;;;;5035298;28;20022;-84
2021/05/17 12:19:34;;;;;;;3.20;0.30;;;16.00;99.90;;;;;;5034907;28;20021;-84
2021/05/17 12:22:36;;;;;;;1.10;0.13;;;16.00;99.90;;;;;;5034956;28;20097;-82
2021/05/17 12:25:13;;;;;;;1.20;0.10;;;16.10;99.90;;;;;;5024621;28;20033;-85
2021/05/17 12:27:40;;;;;;;0.60;0.10;;;16.20;99.90;;;;;;5035686;28;20021;-83
2021/05/17 12:30:09;;;;;;;0.40;0.20;;;16.20;99.90;;;;;;5035735;28;20067;-82
2021/05/17 12:32:38;;;;;;;2.13;0.30;;;16.20;99.90;;;;;;5034596;28;20025;-82
2021/05/17 12:35:04;;;;;;;0.47;0.20;;;16.20;99.90;;;;;;5034247;28;20384;-82
2021/05/17 12:37:32;;;;;;;0.70;0.20;;;16.10;99.90;;;;;;5035404;28;20026;-82
2021/05/17 12:40:21;;;;;;;0.50;0.20;;;16.10;99.90;;;;;;5034186;28;20037;-83
2021/05/17 12:43:12;;;;;;;1.23;0.20;;;16.20;99.90;;;;;;5034157;28;20041;-81
2021/05/17 12:45:44;;;;;;;5.40;0.20;;;16.30;99.90;;;;;;5034163;28;20029;-82
2021/05/17 12:48:19;;;;;;;0.45;0.10;;;16.30;99.90;;;;;;5034138;28;20025;-81
2021/05/17 12:50:49;;;;;;;0.60;0.10;;;16.30;99.90;;;;;;5033950;28;20080;-82
2021/05/17 12:53:18;;;;;;;1.08;0.20;;;16.40;99.90;;;;;;5033441;28;20025;-81
2021/05/17 12:55:45;;;;;;;1.30;0.28;;;16.20;99.90;;;;;;5033740;28;20018;-84
2021/05/17 12:58:13;;;;;;;0.85;0.20;;;16.10;99.90;;;;;;5033992;28;20040;-81
2021/05/17 13:00:49;;;;;;;1.00;0.20;;;16.00;99.90;;;;;;5035624;28;20086;-86
2021/05/17 13:03:27;;;;;;;0.98;0.10;;;16.10;99.90;;;;;;5034708;28;20022;-79
2021/05/17 13:05:57;;;;;;;2.13;0.20;;;16.10;99.90;;;;;;5037808;28;20574;-82
2021/05/17 13:08:28;;;;;;;0.38;0.10;;;16.20;99.90;;;;;;5034563;28;20564;-79
2021/05/17 13:10:56;;;;;;;0.35;0.17;;;16.20;99.90;;;;;;5033686;28;20030;-83
2021/05/17 13:13:50;;;;;;;2.55;0.50;;;16.10;99.90;;;;;;5033667;28;20017;-79
2021/05/17 13:16:19;;;;;;;0.73;0.10;;;16.00;99.90;;;;;;5033916;28;20029;-82
2021/05/17 13:18:55;;;;;;;0.73;0.38;;;15.90;99.90;;;;;;5033379;28;20041;-82
2021/05/17 13:32:20;;;;;;;1.17;0.27;;;15.90;99.90;;;;;;5033606;28;20040;-78
2021/05/17 13:34:45;;;;;;;3.70;0.38;;;15.90;99.90;;;;;;5031890;28;20478;-77